sensor_id;sensor_type;location;lat;lon;timestamp;temperature;humidity
20432;DHT22;10375;49.136;10.366;2023-10-31T00:00:24;11.50;99.90
20432;DHT22;10375;49.136;10.366;2023-10-31T00:02:51;11.50;99.90
20432;DHT22;10375;49.136;10.366;2023-10-31T00:05:18;11.50;99.90
20432;DHT22;10375;49.136;10.366;2023-10-31T00:07:47;11.60;99.90
20432;DHT22;10375;49.136;10.366;2023-10-31T00:10:15;11.50;99.90
20432;DHT22;10375;49.136;10.366;2023-10-31T00:12:42;11.60;99.90
20432;DHT22;10375;49.136;10.366;2023-10-31T00:15:09;11.60;99.90
20432;DHT22;10375;49.136;10.366;2023-10-31T00:17:36;11.50;99.90
20432;DHT22;10375;49.136;10.366;2023-10-31T00:20:04;11.60;99.90
20432;DHT22;10375;49.136;10.366;2023-10-31T00:22:32;11.50;99.90
20432;DHT22;10375;49.136;10.366;2023-10-31T00:24:59;11.60;99.90
20432;DHT22;10375;49.136;10.366;2023-10-31T00:27:26;11.60;99.90
20432;DHT22;10375;49.136;10.366;2023-10-31T00:29:53;11.50;99.90
20432;DHT22;10375;49.136;10.366;2023-10-31T00:32:20;11.50;99.90
20432;DHT22;10375;49.136;10.366;2023-10-31T00:34:47;11.50;99.90
20432;DHT22;10375;49.136;10.366;2023-10-31T00:37:15;11.50;99.90
20432;DHT22;10375;49.136;10.366;2023-10-31T00:39:42;11.50;99.90
20432;DHT22;10375;49.136;10.366;2023-10-31T00:42:09;11.50;99.90
20432;DHT22;10375;49.136;10.366;2023-10-31T00:44:36;11.50;99.90
20432;DHT22;10375;49.136;10.366;2023-10-31T00:47:04;11.50;99.90
20432;DHT22;10375;49.136;10.366;2023-10-31T00:49:32;11.50;99.90
20432;DHT22;10375;49.136;10.366;2023-10-31T00:51:59;11.40;99.90
20432;DHT22;10375;49.136;10.366;2023-10-31T00:54:26;11.40;99.90
20432;DHT22;10375;49.136;10.366;2023-10-31T00:56:54;11.40;99.90
20432;DHT22;10375;49.136;10.366;2023-10-31T00:59:21;11.40;99.90
20432;DHT22;10375;49.136;10.366;2023-10-31T01:01:48;11.40;99.90
20432;DHT22;10375;49.136;10.366;2023-10-31T01:04:15;11.40;99.90
20432;DHT22;10375;49.136;10.366;2023-10-31T01:06:43;11.40;99.90
20432;DHT22;10375;49.136;10.366;2023-10-31T01:09:10;11.40;99.90
20432;DHT22;10375;49.136;10.366;2023-10-31T01:11:38;11.40;99.90
20432;DHT22;10375;49.136;10.366;2023-10-31T01:14:05;11.30;99.90
20432;DHT22;10375;49.136;10.366;2023-10-31T01:16:32;11.30;99.90
20432;DHT22;10375;49.136;10.366;2023-10-31T01:19:00;11.30;99.90
20432;DHT22;10375;49.136;10.366;2023-10-31T01:21:27;11.40;99.90
20432;DHT22;10375;49.136;10.366;2023-10-31T01:23:54;11.30;99.90
20432;DHT22;10375;49.136;10.366;2023-10-31T01:26:21;11.30;99.90
20432;DHT22;10375;49.136;10.366;2023-10-31T01:28:48;11.30;99.90
20432;DHT22;10375;49.136;10.366;2023-10-31T01:31:15;11.20;99.90
20432;DHT22;10375;49.136;10.366;2023-10-31T01:33:43;11.20;99.90
20432;DHT22;10375;49.136;10.366;2023-10-31T01:36:10;11.20;99.90
20432;DHT22;10375;49.136;10.366;2023-10-31T01:38:39;11.20;99.90
20432;DHT22;10375;49.136;10.366;2023-10-31T01:41:06;11.20;99.90
20432;DHT22;10375;49.136;10.366;2023-10-31T01:43:36;11.20;99.90
20432;DHT22;10375;49.136;10.366;2023-10-31T01:46:04;11.20;99.90
20432;DHT22;10375;49.136;10.366;2023-10-31T01:48:32;11.20;99.90
20432;DHT22;10375;49.136;10.366;2023-10-31T01:51:03;11.10;99.90
20432;DHT22;10375;49.136;10.366;2023-10-31T01:53:35;11.00;99.90
20432;DHT22;10375;49.136;10.366;2023-10-31T01:56:04;10.90;99.90
20432;DHT22;10375;49.136;10.366;2023-10-31T01:58:34;10.80;99.90
20432;DHT22;10375;49.136;10.366;2023-10-31T02:01:03;10.70;99.90
20432;DHT22;10375;49.136;10.366;2023-10-31T02:03:31;10.60;99.90
20432;DHT22;10375;49.136;10.366;2023-10-31T02:06:00;10.60;99.90
20432;DHT22;10375;49.136;10.366;2023-10-31T02:08:27;10.60;99.90
20432;DHT22;10375;49.136;10.366;2023-10-31T02:10:54;10.60;99.90
20432;DHT22;10375;49.136;10.366;2023-10-31T02:13:22;10.60;99.90
20432;DHT22;10375;49.136;10.366;2023-10-31T02:15:49;10.50;99.90
20432;DHT22;10375;49.136;10.366;2023-10-31T02:18:17;10.60;99.90
20432;DHT22;10375;49.136;10.366;2023-10-31T02:20:44;10.50;99.90
20432;DHT22;10375;49.136;10.366;2023-10-31T02:23:11;10.60;99.90
20432;DHT22;10375;49.136;10.366;2023-10-31T02:25:39;10.50;99.90
20432;DHT22;10375;49.136;10.366;2023-10-31T02:28:06;10.50;99.90
20432;DHT22;10375;49.136;10.366;2023-10-31T02:30:34;10.50;99.90
20432;DHT22;10375;49.136;10.366;2023-10-31T02:33:02;10.50;99.90
20432;DHT22;10375;49.136;10.366;2023-10-31T02:35:29;10.40;99.90
20432;DHT22;10375;49.136;10.366;2023-10-31T02:37:57;10.50;99.90
20432;DHT22;10375;49.136;10.366;2023-10-31T02:40:24;10.50;99.90
20432;DHT22;10375;49.136;10.366;2023-10-31T02:42:51;10.50;99.90
20432;DHT22;10375;49.136;10.366;2023-10-31T02:45:19;10.50;99.90
20432;DHT22;10375;49.136;10.366;2023-10-31T02:47:46;10.40;99.90
20432;DHT22;10375;49.136;10.366;2023-10-31T02:50:14;10.40;99.90
20432;DHT22;10375;49.136;10.366;2023-10-31T02:52:41;10.40;99.90
20432;DHT22;10375;49.136;10.366;2023-10-31T02:55:08;10.30;99.90
20432;DHT22;10375;49.136;10.366;2023-10-31T02:57:35;10.30;99.90
20432;DHT22;10375;49.136;10.366;2023-10-31T03:00:03;10.30;99.90
20432;DHT22;10375;49.136;10.366;2023-10-31T03:02:31;10.20;99.90
20432;DHT22;10375;49.136;10.366;2023-10-31T03:04:58;10.20;99.90
20432;DHT22;10375;49.136;10.366;2023-10-31T03:07:25;10.20;99.90
20432;DHT22;10375;49.136;10.366;2023-10-31T03:09:53;10.10;99.90
20432;DHT22;10375;49.136;10.366;2023-10-31T03:12:21;10.10;99.90
20432;DHT22;10375;49.136;10.366;2023-10-31T03:14:48;10.00;99.90
20432;DHT22;10375;49.136;10.366;2023-10-31T03:17:15;10.00;99.90
20432;DHT22;10375;49.136;10.366;2023-10-31T03:19:42;10.00;99.90
20432;DHT22;10375;49.136;10.366;2023-10-31T03:22:10;9.90;99.90
20432;DHT22;10375;49.136;10.366;2023-10-31T03:24:37;9.90;99.90
20432;DHT22;10375;49.136;10.366;2023-10-31T03:27:04;9.80;99.90
20432;DHT22;10375;49.136;10.366;2023-10-31T03:29:32;9.80;99.90
20432;DHT22;10375;49.136;10.366;2023-10-31T03:31:59;9.90;99.90
20432;DHT22;10375;49.136;10.366;2023-10-31T03:34:26;9.80;99.90
20432;DHT22;10375;49.136;10.366;2023-10-31T03:36:53;9.80;99.90
20432;DHT22;10375;49.136;10.366;2023-10-31T03:39:20;9.90;99.90
20432;DHT22;10375;49.136;10.366;2023-10-31T03:41:47;9.80;99.90
20432;DHT22;10375;49.136;10.366;2023-10-31T03:44:15;9.90;99.90
20432;DHT22;10375;49.136;10.366;2023-10-31T03:46:42;9.90;99.90
20432;DHT22;10375;49.136;10.366;2023-10-31T03:49:09;9.80;99.90
20432;DHT22;10375;49.136;10.366;2023-10-31T03:51:36;9.80;99.90
20432;DHT22;10375;49.136;10.366;2023-10-31T03:54:04;9.90;99.90
20432;DHT22;10375;49.136;10.366;2023-10-31T03:56:38;9.80;99.90
20432;DHT22;10375;49.136;10.366;2023-10-31T03:59:06;9.80;99.90
20432;DHT22;10375;49.136;10.366;2023-10-31T04:01:34;9.70;99.90
20432;DHT22;10375;49.136;10.366;2023-10-31T04:04:01;9.70;99.90
20432;DHT22;10375;49.136;10.366;2023-10-31T04:06:29;9.70;99.90
20432;DHT22;10375;49.136;10.366;2023-10-31T04:08:56;9.60;99.90
20432;DHT22;10375;49.136;10.366;2023-10-31T04:11:23;9.60;99.90
20432;DHT22;10375;49.136;10.366;2023-10-31T04:13:51;9.60;99.90
20432;DHT22;10375;49.136;10.366;2023-10-31T04:16:18;9.60;99.90
20432;DHT22;10375;49.136;10.366;2023-10-31T04:18:45;9.60;99.90
20432;DHT22;10375;49.136;10.366;2023-10-31T04:21:13;9.60;99.90
20432;DHT22;10375;49.136;10.366;2023-10-31T04:23:40;9.50;99.90
20432;DHT22;10375;49.136;10.366;2023-10-31T04:26:07;9.50;99.90
20432;DHT22;10375;49.136;10.366;2023-10-31T04:28:34;9.50;99.90
20432;DHT22;10375;49.136;10.366;2023-10-31T04:31:01;9.50;99.90
20432;DHT22;10375;49.136;10.366;2023-10-31T04:33:28;9.40;99.90
20432;DHT22;10375;49.136;10.366;2023-10-31T04:35:56;9.40;99.90
20432;DHT22;10375;49.136;10.366;2023-10-31T04:38:23;9.40;99.90
20432;DHT22;10375;49.136;10.366;2023-10-31T04:40:50;9.40;99.90
20432;DHT22;10375;49.136;10.366;2023-10-31T04:43:17;9.40;99.90
20432;DHT22;10375;49.136;10.366;2023-10-31T04:45:44;9.40;99.90
20432;DHT22;10375;49.136;10.366;2023-10-31T04:48:11;9.40;99.90
20432;DHT22;10375;49.136;10.366;2023-10-31T04:50:39;9.40;99.90
20432;DHT22;10375;49.136;10.366;2023-10-31T04:53:07;9.40;99.90
20432;DHT22;10375;49.136;10.366;2023-10-31T04:55:34;9.30;99.90
20432;DHT22;10375;49.136;10.366;2023-10-31T04:58:01;9.30;99.90
20432;DHT22;10375;49.136;10.366;2023-10-31T05:00:29;9.30;99.90
20432;DHT22;10375;49.136;10.366;2023-10-31T05:02:56;9.30;99.90
20432;DHT22;10375;49.136;10.366;2023-10-31T05:05:25;9.30;99.90
20432;DHT22;10375;49.136;10.366;2023-10-31T05:07:52;9.30;99.90
20432;DHT22;10375;49.136;10.366;2023-10-31T05:10:19;9.20;99.90
20432;DHT22;10375;49.136;10.366;2023-10-31T05:12:46;9.20;99.90
20432;DHT22;10375;49.136;10.366;2023-10-31T05:15:14;9.20;99.90
20432;DHT22;10375;49.136;10.366;2023-10-31T05:17:56;9.20;99.90
20432;DHT22;10375;49.136;10.366;2023-10-31T05:20:24;9.20;99.90
20432;DHT22;10375;49.136;10.366;2023-10-31T05:23:28;9.20;99.90
20432;DHT22;10375;49.136;10.366;2023-10-31T05:25:55;9.20;99.90
20432;DHT22;10375;49.136;10.366;2023-10-31T05:28:23;9.20;99.90
20432;DHT22;10375;49.136;10.366;2023-10-31T05:30:53;9.30;99.90
20432;DHT22;10375;49.136;10.366;2023-10-31T05:33:22;9.20;99.90
20432;DHT22;10375;49.136;10.366;2023-10-31T05:35:50;9.20;99.90
20432;DHT22;10375;49.136;10.366;2023-10-31T05:38:17;9.20;99.90
20432;DHT22;10375;49.136;10.366;2023-10-31T05:40:45;9.20;99.90
20432;DHT22;10375;49.136;10.366;2023-10-31T05:43:12;9.10;99.90
20432;DHT22;10375;49.136;10.366;2023-10-31T05:45:39;9.10;99.90
20432;DHT22;10375;49.136;10.366;2023-10-31T05:48:08;9.10;99.90
20432;DHT22;10375;49.136;10.366;2023-10-31T05:50:35;9.20;99.90
20432;DHT22;10375;49.136;10.366;2023-10-31T05:53:03;9.20;99.90
20432;DHT22;10375;49.136;10.366;2023-10-31T05:55:30;9.20;99.90
20432;DHT22;10375;49.136;10.366;2023-10-31T05:57:57;9.20;99.90
20432;DHT22;10375;49.136;10.366;2023-10-31T06:00:24;9.10;99.90
20432;DHT22;10375;49.136;10.366;2023-10-31T06:02:52;9.10;99.90
20432;DHT22;10375;49.136;10.366;2023-10-31T06:05:19;9.10;99.90
20432;DHT22;10375;49.136;10.366;2023-10-31T06:07:46;9.10;99.90
20432;DHT22;10375;49.136;10.366;2023-10-31T06:10:13;9.10;99.90
20432;DHT22;10375;49.136;10.366;2023-10-31T06:12:41;9.10;99.90
20432;DHT22;10375;49.136;10.366;2023-10-31T06:15:08;9.10;99.90
20432;DHT22;10375;49.136;10.366;2023-10-31T06:17:35;9.10;99.90
20432;DHT22;10375;49.136;10.366;2023-10-31T06:20:02;9.10;99.90
20432;DHT22;10375;49.136;10.366;2023-10-31T06:22:30;9.20;99.90
20432;DHT22;10375;49.136;10.366;2023-10-31T06:24:57;9.10;99.90
20432;DHT22;10375;49.136;10.366;2023-10-31T06:27:25;9.10;99.90
20432;DHT22;10375;49.136;10.366;2023-10-31T06:29:52;9.10;99.90
20432;DHT22;10375;49.136;10.366;2023-10-31T06:32:37;9.10;99.90
20432;DHT22;10375;49.136;10.366;2023-10-31T06:35:07;9.10;99.90
20432;DHT22;10375;49.136;10.366;2023-10-31T06:37:35;9.20;99.90
20432;DHT22;10375;49.136;10.366;2023-10-31T06:40:04;9.20;99.90
20432;DHT22;10375;49.136;10.366;2023-10-31T06:42:31;9.20;99.90
20432;DHT22;10375;49.136;10.366;2023-10-31T06:44:58;9.20;99.90
20432;DHT22;10375;49.136;10.366;2023-10-31T06:47:25;9.30;99.90
20432;DHT22;10375;49.136;10.366;2023-10-31T06:49:53;9.30;99.90
20432;DHT22;10375;49.136;10.366;2023-10-31T06:52:20;9.30;99.90
20432;DHT22;10375;49.136;10.366;2023-10-31T06:54:47;9.20;99.90
20432;DHT22;10375;49.136;10.366;2023-10-31T06:57:14;9.30;99.90
20432;DHT22;10375;49.136;10.366;2023-10-31T06:59:43;9.30;99.90
20432;DHT22;10375;49.136;10.366;2023-10-31T07:02:10;9.30;99.90
20432;DHT22;10375;49.136;10.366;2023-10-31T07:04:37;9.30;99.90
20432;DHT22;10375;49.136;10.366;2023-10-31T07:07:04;9.30;99.90
20432;DHT22;10375;49.136;10.366;2023-10-31T07:09:32;9.30;99.90
20432;DHT22;10375;49.136;10.366;2023-10-31T07:11:59;9.40;99.90
20432;DHT22;10375;49.136;10.366;2023-10-31T07:14:26;9.40;99.90
20432;DHT22;10375;49.136;10.366;2023-10-31T07:16:53;9.40;99.90
20432;DHT22;10375;49.136;10.366;2023-10-31T07:19:20;9.50;99.90
20432;DHT22;10375;49.136;10.366;2023-10-31T07:21:47;9.60;99.90
20432;DHT22;10375;49.136;10.366;2023-10-31T07:24:15;9.60;99.90
20432;DHT22;10375;49.136;10.366;2023-10-31T07:26:42;9.70;99.90
20432;DHT22;10375;49.136;10.366;2023-10-31T07:29:09;9.70;99.90
20432;DHT22;10375;49.136;10.366;2023-10-31T07:31:36;9.70;99.90
20432;DHT22;10375;49.136;10.366;2023-10-31T07:34:05;9.70;99.90
20432;DHT22;10375;49.136;10.366;2023-10-31T07:36:33;9.70;99.90
20432;DHT22;10375;49.136;10.366;2023-10-31T07:39:01;9.70;99.90
20432;DHT22;10375;49.136;10.366;2023-10-31T07:41:30;9.70;99.90
20432;DHT22;10375;49.136;10.366;2023-10-31T07:43:58;9.70;99.90
20432;DHT22;10375;49.136;10.366;2023-10-31T07:46:25;9.70;99.90
20432;DHT22;10375;49.136;10.366;2023-10-31T07:48:52;9.80;99.90
20432;DHT22;10375;49.136;10.366;2023-10-31T07:51:19;9.80;99.90
20432;DHT22;10375;49.136;10.366;2023-10-31T07:53:46;9.80;99.90
20432;DHT22;10375;49.136;10.366;2023-10-31T07:56:17;9.80;99.90
20432;DHT22;10375;49.136;10.366;2023-10-31T07:58:50;9.90;99.90
20432;DHT22;10375;49.136;10.366;2023-10-31T08:01:20;9.90;99.90
20432;DHT22;10375;49.136;10.366;2023-10-31T08:03:48;10.00;99.90
20432;DHT22;10375;49.136;10.366;2023-10-31T08:06:15;10.00;99.90
20432;DHT22;10375;49.136;10.366;2023-10-31T08:08:42;10.00;99.90
20432;DHT22;10375;49.136;10.366;2023-10-31T08:11:10;10.10;99.90
20432;DHT22;10375;49.136;10.366;2023-10-31T08:13:38;10.10;99.90
20432;DHT22;10375;49.136;10.366;2023-10-31T08:16:06;10.10;99.90
20432;DHT22;10375;49.136;10.366;2023-10-31T08:18:34;10.20;99.90
20432;DHT22;10375;49.136;10.366;2023-10-31T08:21:03;10.30;99.90
20432;DHT22;10375;49.136;10.366;2023-10-31T08:23:30;10.30;99.90
20432;DHT22;10375;49.136;10.366;2023-10-31T08:25:58;10.30;99.90
20432;DHT22;10375;49.136;10.366;2023-10-31T08:28:25;10.30;99.90
20432;DHT22;10375;49.136;10.366;2023-10-31T08:30:52;10.30;99.90
20432;DHT22;10375;49.136;10.366;2023-10-31T08:33:19;10.20;99.90
20432;DHT22;10375;49.136;10.366;2023-10-31T08:35:46;10.20;99.90
20432;DHT22;10375;49.136;10.366;2023-10-31T08:38:14;10.20;99.90
20432;DHT22;10375;49.136;10.366;2023-10-31T08:40:55;10.20;99.90
20432;DHT22;10375;49.136;10.366;2023-10-31T08:43:23;10.20;99.90
20432;DHT22;10375;49.136;10.366;2023-10-31T08:45:50;10.20;99.90
20432;DHT22;10375;49.136;10.366;2023-10-31T08:48:17;10.20;99.90
20432;DHT22;10375;49.136;10.366;2023-10-31T08:50:44;10.30;99.90
20432;DHT22;10375;49.136;10.366;2023-10-31T08:53:12;10.30;99.90
20432;DHT22;10375;49.136;10.366;2023-10-31T08:55:39;10.30;99.90
20432;DHT22;10375;49.136;10.366;2023-10-31T08:58:14;10.30;99.90
20432;DHT22;10375;49.136;10.366;2023-10-31T09:00:41;10.30;99.90
20432;DHT22;10375;49.136;10.366;2023-10-31T09:03:09;10.30;99.90
20432;DHT22;10375;49.136;10.366;2023-10-31T09:05:36;10.20;99.90
20432;DHT22;10375;49.136;10.366;2023-10-31T09:08:03;10.20;99.90
20432;DHT22;10375;49.136;10.366;2023-10-31T09:10:36;10.30;99.90
20432;DHT22;10375;49.136;10.366;2023-10-31T09:13:05;10.40;99.90
20432;DHT22;10375;49.136;10.366;2023-10-31T09:15:32;10.50;99.90
20432;DHT22;10375;49.136;10.366;2023-10-31T09:17:59;10.60;99.90
20432;DHT22;10375;49.136;10.366;2023-10-31T09:20:26;10.50;99.90
20432;DHT22;10375;49.136;10.366;2023-10-31T09:22:54;10.50;99.90
20432;DHT22;10375;49.136;10.366;2023-10-31T09:25:21;10.60;99.90
20432;DHT22;10375;49.136;10.366;2023-10-31T09:27:49;10.60;99.90
20432;DHT22;10375;49.136;10.366;2023-10-31T09:30:16;10.70;99.90
20432;DHT22;10375;49.136;10.366;2023-10-31T09:32:43;10.80;99.90
20432;DHT22;10375;49.136;10.366;2023-10-31T09:35:10;10.90;99.90
20432;DHT22;10375;49.136;10.366;2023-10-31T09:37:39;10.90;99.90
20432;DHT22;10375;49.136;10.366;2023-10-31T09:40:07;10.90;99.90
20432;DHT22;10375;49.136;10.366;2023-10-31T09:42:34;11.00;99.90
20432;DHT22;10375;49.136;10.366;2023-10-31T09:45:02;11.00;99.90
20432;DHT22;10375;49.136;10.366;2023-10-31T09:47:30;10.90;99.90
20432;DHT22;10375;49.136;10.366;2023-10-31T09:49:59;10.90;99.90
20432;DHT22;10375;49.136;10.366;2023-10-31T09:52:26;10.80;99.90
20432;DHT22;10375;49.136;10.366;2023-10-31T09:54:54;10.70;99.90
20432;DHT22;10375;49.136;10.366;2023-10-31T09:57:23;10.70;99.90
20432;DHT22;10375;49.136;10.366;2023-10-31T09:59:50;10.70;99.90
20432;DHT22;10375;49.136;10.366;2023-10-31T10:02:20;10.70;99.90
20432;DHT22;10375;49.136;10.366;2023-10-31T10:04:48;10.70;99.90
20432;DHT22;10375;49.136;10.366;2023-10-31T10:07:17;10.80;99.90
20432;DHT22;10375;49.136;10.366;2023-10-31T10:09:46;11.00;99.90
20432;DHT22;10375;49.136;10.366;2023-10-31T10:12:15;11.10;99.90
20432;DHT22;10375;49.136;10.366;2023-10-31T10:14:45;11.30;99.90
20432;DHT22;10375;49.136;10.366;2023-10-31T10:17:21;11.50;99.90
20432;DHT22;10375;49.136;10.366;2023-10-31T10:20:05;11.50;99.90
20432;DHT22;10375;49.136;10.366;2023-10-31T10:22:39;11.50;99.90
20432;DHT22;10375;49.136;10.366;2023-10-31T10:25:07;11.50;99.90
20432;DHT22;10375;49.136;10.366;2023-10-31T10:27:37;11.40;99.90
20432;DHT22;10375;49.136;10.366;2023-10-31T10:30:07;11.50;99.90
20432;DHT22;10375;49.136;10.366;2023-10-31T10:32:35;11.70;99.90
20432;DHT22;10375;49.136;10.366;2023-10-31T10:35:02;11.80;99.90
20432;DHT22;10375;49.136;10.366;2023-10-31T10:37:30;11.90;99.90
20432;DHT22;10375;49.136;10.366;2023-10-31T10:40:00;12.10;99.90
20432;DHT22;10375;49.136;10.366;2023-10-31T10:42:44;12.40;99.90
20432;DHT22;10375;49.136;10.366;2023-10-31T10:45:14;12.90;99.90
20432;DHT22;10375;49.136;10.366;2023-10-31T10:47:49;13.30;99.90
20432;DHT22;10375;49.136;10.366;2023-10-31T10:50:20;13.90;99.90
20432;DHT22;10375;49.136;10.366;2023-10-31T10:53:16;13.80;99.90
20432;DHT22;10375;49.136;10.366;2023-10-31T10:55:56;13.40;99.90
20432;DHT22;10375;49.136;10.366;2023-10-31T10:58:55;13.20;99.90
20432;DHT22;10375;49.136;10.366;2023-10-31T11:01:24;13.60;99.90
20432;DHT22;10375;49.136;10.366;2023-10-31T11:03:53;13.80;99.90
20432;DHT22;10375;49.136;10.366;2023-10-31T11:06:21;13.60;99.90
20432;DHT22;10375;49.136;10.366;2023-10-31T11:08:49;13.30;99.90
20432;DHT22;10375;49.136;10.366;2023-10-31T11:11:20;13.10;99.90
20432;DHT22;10375;49.136;10.366;2023-10-31T11:13:47;12.80;99.90
20432;DHT22;10375;49.136;10.366;2023-10-31T11:16:26;12.40;99.90
20432;DHT22;10375;49.136;10.366;2023-10-31T11:18:56;12.10;99.90
20432;DHT22;10375;49.136;10.366;2023-10-31T11:21:23;12.10;99.90
20432;DHT22;10375;49.136;10.366;2023-10-31T11:23:58;12.10;99.90
20432;DHT22;10375;49.136;10.366;2023-10-31T11:26:32;12.20;99.90
20432;DHT22;10375;49.136;10.366;2023-10-31T11:29:05;12.20;99.90
20432;DHT22;10375;49.136;10.366;2023-10-31T11:31:33;12.20;99.90
20432;DHT22;10375;49.136;10.366;2023-10-31T11:34:03;12.20;99.90
20432;DHT22;10375;49.136;10.366;2023-10-31T11:36:31;12.30;99.90
20432;DHT22;10375;49.136;10.366;2023-10-31T11:39:15;12.40;99.90
20432;DHT22;10375;49.136;10.366;2023-10-31T11:41:50;12.50;99.90
20432;DHT22;10375;49.136;10.366;2023-10-31T11:44:18;12.70;99.90
20432;DHT22;10375;49.136;10.366;2023-10-31T11:46:50;12.70;99.90
20432;DHT22;10375;49.136;10.366;2023-10-31T11:49:47;12.60;99.90
20432;DHT22;10375;49.136;10.366;2023-10-31T11:52:18;12.90;99.90
20432;DHT22;10375;49.136;10.366;2023-10-31T11:54:45;13.10;99.90
20432;DHT22;10375;49.136;10.366;2023-10-31T11:57:26;13.10;99.90
20432;DHT22;10375;49.136;10.366;2023-10-31T11:59:54;13.00;99.90
20432;DHT22;10375;49.136;10.366;2023-10-31T12:02:21;13.10;99.90
20432;DHT22;10375;49.136;10.366;2023-10-31T12:04:49;13.00;99.90
20432;DHT22;10375;49.136;10.366;2023-10-31T12:07:18;12.80;99.90
20432;DHT22;10375;49.136;10.366;2023-10-31T12:09:47;12.90;99.90
20432;DHT22;10375;49.136;10.366;2023-10-31T12:12:15;13.00;99.90
20432;DHT22;10375;49.136;10.366;2023-10-31T12:14:42;13.00;99.90
20432;DHT22;10375;49.136;10.366;2023-10-31T12:17:09;13.10;99.90
20432;DHT22;10375;49.136;10.366;2023-10-31T12:19:37;13.00;99.90
20432;DHT22;10375;49.136;10.366;2023-10-31T12:22:13;12.90;99.90
20432;DHT22;10375;49.136;10.366;2023-10-31T12:24:40;13.10;99.90
20432;DHT22;10375;49.136;10.366;2023-10-31T12:27:07;13.30;99.90
20432;DHT22;10375;49.136;10.366;2023-10-31T12:29:37;13.70;99.90
20432;DHT22;10375;49.136;10.366;2023-10-31T12:32:05;14.00;99.90
20432;DHT22;10375;49.136;10.366;2023-10-31T12:34:32;14.00;99.90
20432;DHT22;10375;49.136;10.366;2023-10-31T12:37:02;13.90;99.90
20432;DHT22;10375;49.136;10.366;2023-10-31T12:39:30;14.20;99.90
20432;DHT22;10375;49.136;10.366;2023-10-31T12:41:58;14.30;99.90
20432;DHT22;10375;49.136;10.366;2023-10-31T12:44:26;14.50;99.90
20432;DHT22;10375;49.136;10.366;2023-10-31T12:46:56;14.80;99.90
20432;DHT22;10375;49.136;10.366;2023-10-31T12:49:23;14.80;99.90
20432;DHT22;10375;49.136;10.366;2023-10-31T12:52:02;14.70;99.90
20432;DHT22;10375;49.136;10.366;2023-10-31T12:54:35;14.40;99.90
20432;DHT22;10375;49.136;10.366;2023-10-31T12:57:07;14.20;99.90
20432;DHT22;10375;49.136;10.366;2023-10-31T12:59:36;14.00;99.90
20432;DHT22;10375;49.136;10.366;2023-10-31T13:02:06;13.80;99.90
20432;DHT22;10375;49.136;10.366;2023-10-31T13:04:34;13.70;99.90
20432;DHT22;10375;49.136;10.366;2023-10-31T13:07:04;13.50;99.90
20432;DHT22;10375;49.136;10.366;2023-10-31T13:09:32;13.30;99.90
20432;DHT22;10375;49.136;10.366;2023-10-31T13:12:01;13.20;99.90
20432;DHT22;10375;49.136;10.366;2023-10-31T13:14:29;13.10;99.90
20432;DHT22;10375;49.136;10.366;2023-10-31T13:16:56;12.90;99.90
20432;DHT22;10375;49.136;10.366;2023-10-31T13:19:23;12.80;99.90
20432;DHT22;10375;49.136;10.366;2023-10-31T13:21:51;12.70;99.90
20432;DHT22;10375;49.136;10.366;2023-10-31T13:24:18;12.70;99.90
20432;DHT22;10375;49.136;10.366;2023-10-31T13:26:46;12.80;99.90
20432;DHT22;10375;49.136;10.366;2023-10-31T13:29:20;13.10;99.90
20432;DHT22;10375;49.136;10.366;2023-10-31T13:31:48;13.30;99.90
20432;DHT22;10375;49.136;10.366;2023-10-31T13:34:16;13.40;99.90
20432;DHT22;10375;49.136;10.366;2023-10-31T13:36:43;13.50;99.90
20432;DHT22;10375;49.136;10.366;2023-10-31T13:39:11;13.40;99.90
20432;DHT22;10375;49.136;10.366;2023-10-31T13:41:39;13.20;99.90
20432;DHT22;10375;49.136;10.366;2023-10-31T13:44:06;13.00;99.90
20432;DHT22;10375;49.136;10.366;2023-10-31T13:46:33;12.80;99.90
20432;DHT22;10375;49.136;10.366;2023-10-31T13:49:01;12.70;99.90
20432;DHT22;10375;49.136;10.366;2023-10-31T13:51:28;12.50;99.90
20432;DHT22;10375;49.136;10.366;2023-10-31T13:53:55;12.40;99.90
20432;DHT22;10375;49.136;10.366;2023-10-31T13:56:23;12.30;99.90
20432;DHT22;10375;49.136;10.366;2023-10-31T13:58:51;12.30;99.90
20432;DHT22;10375;49.136;10.366;2023-10-31T14:01:18;12.10;99.90
20432;DHT22;10375;49.136;10.366;2023-10-31T14:03:51;12.00;99.90
20432;DHT22;10375;49.136;10.366;2023-10-31T14:06:19;11.90;99.90
20432;DHT22;10375;49.136;10.366;2023-10-31T14:08:46;11.80;99.90
20432;DHT22;10375;49.136;10.366;2023-10-31T14:11:14;11.70;99.90
20432;DHT22;10375;49.136;10.366;2023-10-31T14:13:42;11.60;99.90
20432;DHT22;10375;49.136;10.366;2023-10-31T14:16:11;11.60;99.90
20432;DHT22;10375;49.136;10.366;2023-10-31T14:18:39;11.70;99.90
20432;DHT22;10375;49.136;10.366;2023-10-31T14:21:07;11.90;99.90
20432;DHT22;10375;49.136;10.366;2023-10-31T14:23:35;12.10;99.90
20432;DHT22;10375;49.136;10.366;2023-10-31T14:26:02;12.30;99.90
20432;DHT22;10375;49.136;10.366;2023-10-31T14:28:30;12.30;99.90
20432;DHT22;10375;49.136;10.366;2023-10-31T14:30:57;12.30;99.90
20432;DHT22;10375;49.136;10.366;2023-10-31T14:33:25;12.30;99.90
20432;DHT22;10375;49.136;10.366;2023-10-31T14:35:52;12.30;99.90
20432;DHT22;10375;49.136;10.366;2023-10-31T14:38:19;12.30;99.90
20432;DHT22;10375;49.136;10.366;2023-10-31T14:40:47;12.30;99.90
20432;DHT22;10375;49.136;10.366;2023-10-31T14:43:14;12.20;99.90
20432;DHT22;10375;49.136;10.366;2023-10-31T14:45:45;12.10;99.90
20432;DHT22;10375;49.136;10.366;2023-10-31T14:48:12;12.00;99.90
20432;DHT22;10375;49.136;10.366;2023-10-31T14:50:40;11.90;99.90
20432;DHT22;10375;49.136;10.366;2023-10-31T14:53:07;11.80;99.90
20432;DHT22;10375;49.136;10.366;2023-10-31T14:55:38;11.80;99.90
20432;DHT22;10375;49.136;10.366;2023-10-31T14:58:05;11.80;99.90
20432;DHT22;10375;49.136;10.366;2023-10-31T15:00:35;11.80;99.90
20432;DHT22;10375;49.136;10.366;2023-10-31T15:03:03;11.80;99.90
20432;DHT22;10375;49.136;10.366;2023-10-31T15:05:30;11.70;99.90
20432;DHT22;10375;49.136;10.366;2023-10-31T15:07:58;11.70;99.90
20432;DHT22;10375;49.136;10.366;2023-10-31T15:10:25;11.70;99.90
20432;DHT22;10375;49.136;10.366;2023-10-31T15:12:55;11.70;99.90
20432;DHT22;10375;49.136;10.366;2023-10-31T15:15:22;11.60;99.90
20432;DHT22;10375;49.136;10.366;2023-10-31T15:17:50;11.60;99.90
20432;DHT22;10375;49.136;10.366;2023-10-31T15:20:20;11.50;99.90
20432;DHT22;10375;49.136;10.366;2023-10-31T15:22:47;11.40;99.90
20432;DHT22;10375;49.136;10.366;2023-10-31T15:25:15;11.30;99.90
20432;DHT22;10375;49.136;10.366;2023-10-31T15:27:42;11.40;99.90